createdAt,value
2022-11-07T00:01:51.512Z,9.99
2022-11-07T00:06:53.022Z,10.01
2022-11-07T00:11:55.043Z,9.88
2022-11-07T00:16:59.218Z,9.90
2022-11-07T00:22:00.735Z,9.82
2022-11-07T00:27:02.246Z,9.81
2022-11-07T00:32:03.900Z,9.88
2022-11-07T00:37:05.504Z,9.94
2022-11-07T00:42:07.114Z,9.98
2022-11-07T00:47:08.551Z,10.11
2022-11-07T00:52:10.095Z,10.12
2022-11-07T00:57:11.532Z,9.98
2022-11-07T01:02:13.122Z,9.95
2022-11-07T01:07:14.594Z,9.91
2022-11-07T01:12:16.046Z,9.98
2022-11-07T01:17:17.432Z,9.92
2022-11-07T01:22:18.819Z,9.95
2022-11-07T01:27:20.259Z,10.05
2022-11-07T01:32:21.739Z,10.00
2022-11-07T01:37:23.150Z,10.04
2022-11-07T01:42:25.692Z,10.08
2022-11-07T01:47:33.056Z,10.13
2022-11-07T01:52:39.464Z,10.00
2022-11-07T01:57:43.811Z,10.01
2022-11-07T02:02:48.444Z,9.95
2022-11-07T02:07:50.454Z,9.99
2022-11-07T02:12:52.256Z,9.89
2022-11-07T02:17:55.265Z,9.82
2022-11-07T02:23:00.327Z,9.79
2022-11-07T02:28:06.157Z,9.75
2022-11-07T02:33:21.880Z,9.85
2022-11-07T02:38:31.082Z,9.75
2022-11-07T02:43:35.104Z,9.89
2022-11-07T02:48:49.503Z,9.85
2022-11-07T02:53:51.675Z,9.79
2022-11-07T02:58:53.248Z,9.82
2022-11-07T03:03:54.768Z,9.72
2022-11-07T03:08:56.200Z,9.67
2022-11-07T03:13:57.648Z,9.74
2022-11-07T03:18:59.018Z,9.82
2022-11-07T03:24:00.465Z,9.82
2022-11-07T03:29:01.861Z,9.88
2022-11-07T03:34:04.006Z,9.77
2022-11-07T03:39:05.455Z,9.77
2022-11-07T03:44:07.001Z,9.95
2022-11-07T03:49:08.621Z,9.91
2022-11-07T03:54:10.390Z,10.03
2022-11-07T03:59:11.744Z,9.98
2022-11-07T04:04:13.454Z,10.00
2022-11-07T04:09:15.980Z,9.99
2022-11-07T04:14:43.676Z,10.03
2022-11-07T04:19:47.279Z,10.06
2022-11-07T04:24:48.830Z,10.17
2022-11-07T04:29:50.397Z,10.16
2022-11-07T04:34:52.276Z,10.07
2022-11-07T04:39:53.651Z,10.21
2022-11-07T04:44:55.123Z,10.20
2022-11-07T04:49:56.579Z,10.23
2022-11-07T04:54:58.059Z,10.19
2022-11-07T04:59:59.648Z,10.18
2022-11-07T05:05:01.099Z,10.21
2022-11-07T05:10:02.918Z,10.31
2022-11-07T05:15:04.737Z,10.23
2022-11-07T05:20:06.792Z,10.29
2022-11-07T05:25:08.955Z,10.34
2022-11-07T05:30:11.185Z,10.30
2022-11-07T05:35:12.586Z,10.27
2022-11-07T05:40:14.433Z,10.32
2022-11-07T05:45:16.075Z,10.32
2022-11-07T05:50:17.513Z,10.33
2022-11-07T05:55:19.128Z,10.33
2022-11-07T06:00:22.702Z,10.36
2022-11-07T06:05:24.519Z,10.40
2022-11-07T06:10:26.053Z,10.30
2022-11-07T06:15:28.788Z,10.25
2022-11-07T06:20:32.083Z,10.27
2022-11-07T06:25:35.099Z,10.29
2022-11-07T06:30:37.221Z,10.39
2022-11-07T06:35:38.797Z,10.22
2022-11-07T06:40:45.101Z,10.28
2022-11-07T06:45:47.323Z,10.34
2022-11-07T06:50:58.862Z,10.35
2022-11-07T06:56:01.523Z,10.36
2022-11-07T07:01:13.468Z,10.40
2022-11-07T07:06:16.795Z,10.41
2022-11-07T07:11:18.364Z,10.51
2022-11-07T07:16:19.975Z,10.51
2022-11-07T07:21:21.422Z,10.55
2022-11-07T07:26:22.842Z,10.51
2022-11-07T07:31:28.788Z,10.58
2022-11-07T07:36:30.246Z,10.70
2022-11-07T07:41:33.973Z,10.73
2022-11-07T07:46:39.005Z,10.72
2022-11-07T07:51:40.421Z,10.84
2022-11-07T07:56:41.982Z,10.83
2022-11-07T08:01:48.794Z,10.82
2022-11-07T08:06:52.513Z,10.92
2022-11-07T08:11:53.917Z,10.93
2022-11-07T08:16:55.520Z,11.08
2022-11-07T08:21:57.037Z,11.14
2022-11-07T08:26:58.428Z,11.28
2022-11-07T08:31:59.990Z,11.31
2022-11-07T08:37:01.375Z,11.39
2022-11-07T08:42:02.827Z,11.39
2022-11-07T08:47:08.441Z,11.53
2022-11-07T08:52:10.199Z,11.52
2022-11-07T08:57:11.796Z,11.62
2022-11-07T09:03:04.286Z,11.59
2022-11-07T09:07:38.107Z,11.67
2022-11-07T09:12:50.411Z,11.72
2022-11-07T09:17:51.814Z,11.74
2022-11-07T09:22:56.811Z,11.80
2022-11-07T09:28:02.525Z,11.88
2022-11-07T09:33:04.028Z,11.92
2022-11-07T09:38:05.448Z,11.91
2022-11-07T09:43:44.455Z,11.94
2022-11-07T09:49:13.191Z,12.02
2022-11-07T09:54:20.186Z,12.06
2022-11-07T09:59:25.938Z,12.13
2022-11-07T10:04:27.653Z,12.08
2022-11-07T10:09:42.881Z,11.97
2022-11-07T10:14:59.547Z,11.95
2022-11-07T10:20:00.827Z,11.98
2022-11-07T10:25:47.459Z,12.03
2022-11-07T10:30:51.626Z,12.06
2022-11-07T10:35:58.826Z,12.08
2022-11-07T10:41:00.222Z,12.14
2022-11-07T10:46:11.103Z,12.23
2022-11-07T10:51:12.499Z,12.29
2022-11-07T10:56:19.342Z,12.37
2022-11-07T11:01:26.259Z,12.60
2022-11-07T11:06:31.016Z,12.66
2022-11-07T11:11:34.631Z,12.67
2022-11-07T11:16:38.589Z,12.74
2022-11-07T11:21:43.578Z,12.71
2022-11-07T11:26:47.435Z,12.64
2022-11-07T11:31:52.343Z,12.70
2022-11-07T11:37:11.078Z,12.75
2022-11-07T11:42:50.743Z,12.80
2022-11-07T11:48:00.264Z,12.87
2022-11-07T11:53:01.731Z,12.97
2022-11-07T11:58:28.376Z,13.00
2022-11-07T12:03:56.995Z,13.06
2022-11-07T12:09:17.310Z,12.98
2022-11-07T12:14:35.238Z,13.04
2022-11-07T12:19:49.322Z,13.04
2022-11-07T12:25:09.808Z,13.11
2022-11-07T12:30:59.176Z,13.12
2022-11-07T12:36:34.839Z,13.17
2022-11-07T12:41:59.540Z,13.12
2022-11-07T12:47:32.022Z,13.22
2022-11-07T12:52:52.470Z,13.24
2022-11-07T12:57:55.304Z,13.28
2022-11-07T13:03:21.324Z,13.42
2022-11-07T13:08:51.869Z,13.47
2022-11-07T13:14:02.271Z,13.52
2022-11-07T13:19:32.972Z,13.51
2022-11-07T13:24:38.924Z,13.52
2022-11-07T13:29:40.574Z,13.46
2022-11-07T13:34:59.253Z,13.39
2022-11-07T13:40:15.946Z,13.32
2022-11-07T13:45:51.990Z,13.30
2022-11-07T13:51:07.400Z,13.36
2022-11-07T13:56:40.279Z,13.32
2022-11-07T14:01:45.492Z,13.39
2022-11-07T14:06:47.802Z,13.37
2022-11-07T14:11:54.902Z,13.36
2022-11-07T14:17:00.405Z,13.33
2022-11-07T14:22:02.320Z,13.40
2022-11-07T14:27:07.295Z,13.34
2022-11-07T14:32:17.213Z,13.41
2022-11-07T14:37:24.952Z,13.46
2022-11-07T14:42:26.604Z,13.44
2022-11-07T14:47:31.794Z,13.46
2022-11-07T14:52:38.677Z,13.46
2022-11-07T14:57:40.772Z,13.44
2022-11-07T15:02:42.512Z,13.37
2022-11-07T15:07:49.027Z,13.38
2022-11-07T15:12:56.267Z,13.37
2022-11-07T15:18:00.927Z,13.29
2022-11-07T15:23:24.298Z,13.32
2022-11-07T15:28:43.073Z,13.23
2022-11-07T15:33:44.802Z,13.24
2022-11-07T15:38:48.056Z,13.18
2022-11-07T15:43:49.461Z,13.21
2022-11-07T15:48:50.936Z,13.09
2022-11-07T15:53:52.455Z,13.06
2022-11-07T15:58:55.238Z,13.03
2022-11-07T16:03:56.683Z,12.95
2022-11-07T16:08:58.548Z,13.02
2022-11-07T16:14:29.462Z,12.95
2022-11-07T16:19:26.135Z,12.87
2022-11-07T16:24:27.504Z,12.82
2022-11-07T16:29:28.857Z,12.83
2022-11-07T16:34:30.250Z,12.89
2022-11-07T16:39:31.767Z,12.83
2022-11-07T16:44:33.236Z,12.83
2022-11-07T16:49:34.727Z,12.86
2022-11-07T16:54:36.301Z,12.76
2022-11-07T16:59:37.909Z,12.78
2022-11-07T17:04:39.340Z,12.87
2022-11-07T17:09:41.564Z,12.88
2022-11-07T17:14:42.984Z,12.85
2022-11-07T17:19:44.766Z,12.96
2022-11-07T17:24:46.222Z,12.88
2022-11-07T17:29:47.627Z,12.90
2022-11-07T17:35:10.559Z,12.98
2022-11-07T17:40:18.625Z,13.01
2022-11-07T17:45:19.965Z,13.04
2022-11-07T17:50:22.422Z,13.02
2022-11-07T17:55:24.611Z,13.09
2022-11-07T18:00:27.674Z,13.18
2022-11-07T18:05:33.366Z,13.11
2022-11-07T18:10:35.210Z,13.09
2022-11-07T18:15:37.788Z,13.22
2022-11-07T18:20:39.261Z,13.22
2022-11-07T18:25:40.673Z,13.14
2022-11-07T18:30:42.286Z,13.30
2022-11-07T18:35:43.643Z,13.26
2022-11-07T18:40:58.379Z,13.23
2022-11-07T18:46:00.235Z,13.08
2022-11-07T18:51:01.723Z,13.03
2022-11-07T18:56:05.869Z,13.06
2022-11-07T19:01:10.644Z,12.92
2022-11-07T19:06:15.433Z,12.85
2022-11-07T19:11:26.241Z,12.81
2022-11-07T19:16:28.575Z,12.72
2022-11-07T19:21:30.087Z,12.95
2022-11-07T19:26:31.631Z,12.94
2022-11-07T19:31:34.869Z,12.89
2022-11-07T19:36:37.136Z,12.94
2022-11-07T19:41:41.501Z,12.96
2022-11-07T19:46:43.420Z,13.03
2022-11-07T19:51:46.762Z,12.91
2022-11-07T19:56:51.890Z,12.92
2022-11-07T20:02:25.829Z,12.85
2022-11-07T20:07:17.647Z,12.80
2022-11-07T20:12:19.082Z,12.74
2022-11-07T20:17:20.614Z,12.80
2022-11-07T20:22:23.186Z,12.63
2022-11-07T20:27:24.813Z,12.76
2022-11-07T20:32:28.395Z,12.71
2022-11-07T20:37:30.048Z,12.74
2022-11-07T20:42:31.591Z,12.64
2022-11-07T20:47:33.117Z,12.63
2022-11-07T20:52:34.530Z,12.68
2022-11-07T20:57:36.094Z,12.69
2022-11-07T21:02:37.606Z,12.63
2022-11-07T21:07:39.081Z,12.68
2022-11-07T21:12:42.732Z,12.55
2022-11-07T21:17:44.242Z,12.66
2022-11-07T21:22:49.393Z,12.71
2022-11-07T21:27:50.801Z,12.61
2022-11-07T21:32:52.355Z,12.70
2022-11-07T21:37:53.854Z,12.72
2022-11-07T21:42:55.328Z,12.76
2022-11-07T21:47:56.901Z,12.85
2022-11-07T21:52:58.417Z,12.84
2022-11-07T21:57:59.915Z,12.91
2022-11-07T22:03:01.509Z,12.86
2022-11-07T22:08:04.263Z,12.77
2022-11-07T22:13:07.141Z,12.90
2022-11-07T22:18:09.589Z,12.89
2022-11-07T22:23:11.285Z,12.92
2022-11-07T22:28:17.541Z,12.87
2022-11-07T22:33:19.403Z,12.76
2022-11-07T22:38:22.363Z,12.74
2022-11-07T22:43:23.963Z,12.72
2022-11-07T22:48:25.459Z,12.62
2022-11-07T22:53:28.374Z,12.57
2022-11-07T22:58:30.050Z,12.50
2022-11-07T23:03:34.352Z,12.40
2022-11-07T23:08:36.232Z,12.28
2022-11-07T23:13:39.284Z,12.27
2022-11-07T23:18:40.687Z,12.36
2022-11-07T23:23:45.035Z,12.29
2022-11-07T23:28:47.354Z,12.20
2022-11-07T23:33:51.163Z,12.26
2022-11-07T23:38:52.661Z,12.12
2022-11-07T23:43:54.204Z,12.06
2022-11-07T23:49:14.845Z,11.93
2022-11-07T23:54:35.000Z,11.85
2022-11-07T23:59:55.548Z,11.91
